sensor_id;sensor_type;location;lat;lon;timestamp;P1;durP1;ratioP1;P2;durP2;ratioP2
12625;SDS011;6378;42.684;23.372;2023-07-08T00:00:15;17.45;;;15.63;;
12625;SDS011;6378;42.684;23.372;2023-07-08T00:02:42;17.80;;;15.65;;
12625;SDS011;6378;42.684;23.372;2023-07-08T00:05:09;17.73;;;15.00;;
12625;SDS011;6378;42.684;23.372;2023-07-08T00:07:36;16.58;;;14.88;;
12625;SDS011;6378;42.684;23.372;2023-07-08T00:10:09;18.75;;;15.52;;
12625;SDS011;6378;42.684;23.372;2023-07-08T00:12:37;17.58;;;15.40;;
12625;SDS011;6378;42.684;23.372;2023-07-08T00:15:03;17.73;;;15.93;;
12625;SDS011;6378;42.684;23.372;2023-07-08T00:17:30;19.95;;;15.77;;
12625;SDS011;6378;42.684;23.372;2023-07-08T00:19:55;19.00;;;16.90;;
12625;SDS011;6378;42.684;23.372;2023-07-08T00:22:20;19.10;;;17.20;;
12625;SDS011;6378;42.684;23.372;2023-07-08T00:24:49;19.63;;;17.63;;
12625;SDS011;6378;42.684;23.372;2023-07-08T00:27:15;19.00;;;17.10;;
12625;SDS011;6378;42.684;23.372;2023-07-08T00:29:41;18.23;;;16.42;;
12625;SDS011;6378;42.684;23.372;2023-07-08T00:32:09;19.98;;;17.92;;
12625;SDS011;6378;42.684;23.372;2023-07-08T00:34:39;19.00;;;17.20;;
12625;SDS011;6378;42.684;23.372;2023-07-08T00:37:05;19.80;;;17.70;;
12625;SDS011;6378;42.684;23.372;2023-07-08T00:39:31;18.17;;;16.40;;
12625;SDS011;6378;42.684;23.372;2023-07-08T00:41:58;18.83;;;16.83;;
12625;SDS011;6378;42.684;23.372;2023-07-08T00:44:26;18.10;;;16.30;;
12625;SDS011;6378;42.684;23.372;2023-07-08T00:47:05;18.90;;;16.48;;
12625;SDS011;6378;42.684;23.372;2023-07-08T00:49:47;18.63;;;16.77;;
12625;SDS011;6378;42.684;23.372;2023-07-08T00:52:22;18.00;;;16.23;;
12625;SDS011;6378;42.684;23.372;2023-07-08T00:54:59;17.50;;;15.80;;
12625;SDS011;6378;42.684;23.372;2023-07-08T00:57:30;19.27;;;17.27;;
12625;SDS011;6378;42.684;23.372;2023-07-08T01:00:05;18.67;;;16.77;;
12625;SDS011;6378;42.684;23.372;2023-07-08T01:02:35;18.65;;;16.50;;
12625;SDS011;6378;42.684;23.372;2023-07-08T01:05:11;17.65;;;15.85;;
12625;SDS011;6378;42.684;23.372;2023-07-08T01:07:44;17.90;;;16.10;;
12625;SDS011;6378;42.684;23.372;2023-07-08T01:10:16;17.15;;;15.35;;
12625;SDS011;6378;42.684;23.372;2023-07-08T01:12:46;17.98;;;16.25;;
12625;SDS011;6378;42.684;23.372;2023-07-08T01:15:13;17.73;;;15.80;;
12625;SDS011;6378;42.684;23.372;2023-07-08T01:17:40;17.40;;;15.70;;
12625;SDS011;6378;42.684;23.372;2023-07-08T01:20:07;18.35;;;16.20;;
12625;SDS011;6378;42.684;23.372;2023-07-08T01:22:40;16.80;;;15.20;;
12625;SDS011;6378;42.684;23.372;2023-07-08T01:25:07;16.90;;;15.20;;
12625;SDS011;6378;42.684;23.372;2023-07-08T01:27:35;17.75;;;15.95;;
12625;SDS011;6378;42.684;23.372;2023-07-08T01:30:03;16.55;;;14.73;;
12625;SDS011;6378;42.684;23.372;2023-07-08T01:32:30;17.83;;;15.68;;
12625;SDS011;6378;42.684;23.372;2023-07-08T01:34:59;17.25;;;15.10;;
12625;SDS011;6378;42.684;23.372;2023-07-08T01:37:34;17.55;;;15.10;;
12625;SDS011;6378;42.684;23.372;2023-07-08T01:42:46;16.27;;;14.60;;
12625;SDS011;6378;42.684;23.372;2023-07-08T01:45:16;16.42;;;14.77;;
12625;SDS011;6378;42.684;23.372;2023-07-08T01:47:45;16.38;;;14.75;;
12625;SDS011;6378;42.684;23.372;2023-07-08T01:50:15;16.60;;;14.88;;
12625;SDS011;6378;42.684;23.372;2023-07-08T01:52:41;16.33;;;14.30;;
12625;SDS011;6378;42.684;23.372;2023-07-08T01:55:06;16.92;;;15.27;;
12625;SDS011;6378;42.684;23.372;2023-07-08T01:57:32;16.80;;;15.15;;
12625;SDS011;6378;42.684;23.372;2023-07-08T01:59:58;17.08;;;14.82;;
12625;SDS011;6378;42.684;23.372;2023-07-08T02:02:23;18.42;;;15.82;;
12625;SDS011;6378;42.684;23.372;2023-07-08T02:04:49;17.02;;;15.43;;
12625;SDS011;6378;42.684;23.372;2023-07-08T02:07:15;16.45;;;14.95;;
12625;SDS011;6378;42.684;23.372;2023-07-08T02:09:40;16.67;;;15.05;;
12625;SDS011;6378;42.684;23.372;2023-07-08T02:12:06;16.60;;;14.85;;
12625;SDS011;6378;42.684;23.372;2023-07-08T02:14:32;16.08;;;14.45;;
12625;SDS011;6378;42.684;23.372;2023-07-08T02:16:57;16.67;;;14.98;;
12625;SDS011;6378;42.684;23.372;2023-07-08T02:19:23;15.95;;;14.25;;
12625;SDS011;6378;42.684;23.372;2023-07-08T02:21:49;18.35;;;14.63;;
12625;SDS011;6378;42.684;23.372;2023-07-08T02:24:16;15.57;;;13.90;;
12625;SDS011;6378;42.684;23.372;2023-07-08T02:26:42;16.15;;;14.45;;
12625;SDS011;6378;42.684;23.372;2023-07-08T02:29:07;15.43;;;13.68;;
12625;SDS011;6378;42.684;23.372;2023-07-08T02:31:33;14.70;;;13.13;;
12625;SDS011;6378;42.684;23.372;2023-07-08T02:33:58;16.10;;;14.30;;
12625;SDS011;6378;42.684;23.372;2023-07-08T02:36:24;16.15;;;14.45;;
12625;SDS011;6378;42.684;23.372;2023-07-08T02:38:51;15.70;;;13.95;;
12625;SDS011;6378;42.684;23.372;2023-07-08T02:41:16;14.93;;;13.52;;
12625;SDS011;6378;42.684;23.372;2023-07-08T02:43:41;15.80;;;13.82;;
12625;SDS011;6378;42.684;23.372;2023-07-08T02:46:07;15.93;;;14.23;;
12625;SDS011;6378;42.684;23.372;2023-07-08T02:48:32;15.20;;;13.80;;
12625;SDS011;6378;42.684;23.372;2023-07-08T02:50:58;15.23;;;13.70;;
12625;SDS011;6378;42.684;23.372;2023-07-08T02:53:25;16.17;;;14.55;;
12625;SDS011;6378;42.684;23.372;2023-07-08T02:55:50;15.73;;;14.02;;
12625;SDS011;6378;42.684;23.372;2023-07-08T02:58:15;14.88;;;13.35;;
12625;SDS011;6378;42.684;23.372;2023-07-08T03:00:41;14.73;;;13.27;;
12625;SDS011;6378;42.684;23.372;2023-07-08T03:03:06;15.05;;;13.60;;
12625;SDS011;6378;42.684;23.372;2023-07-08T03:05:32;16.30;;;14.45;;
12625;SDS011;6378;42.684;23.372;2023-07-08T03:07:58;14.57;;;13.10;;
12625;SDS011;6378;42.684;23.372;2023-07-08T03:10:23;16.45;;;14.57;;
12625;SDS011;6378;42.684;23.372;2023-07-08T03:12:49;15.52;;;13.93;;
12625;SDS011;6378;42.684;23.372;2023-07-08T03:15:14;18.50;;;14.60;;
12625;SDS011;6378;42.684;23.372;2023-07-08T03:17:40;15.45;;;13.88;;
12625;SDS011;6378;42.684;23.372;2023-07-08T03:20:07;15.52;;;13.98;;
12625;SDS011;6378;42.684;23.372;2023-07-08T03:22:33;15.88;;;14.27;;
12625;SDS011;6378;42.684;23.372;2023-07-08T03:24:59;15.50;;;14.00;;
12625;SDS011;6378;42.684;23.372;2023-07-08T03:27:24;16.20;;;14.45;;
12625;SDS011;6378;42.684;23.372;2023-07-08T03:29:49;18.17;;;13.73;;
12625;SDS011;6378;42.684;23.372;2023-07-08T03:32:15;16.67;;;12.80;;
12625;SDS011;6378;42.684;23.372;2023-07-08T03:34:40;13.65;;;12.25;;
12625;SDS011;6378;42.684;23.372;2023-07-08T03:37:06;12.85;;;11.55;;
12625;SDS011;6378;42.684;23.372;2023-07-08T03:39:33;13.95;;;12.45;;
12625;SDS011;6378;42.684;23.372;2023-07-08T03:41:59;13.65;;;11.00;;
12625;SDS011;6378;42.684;23.372;2023-07-08T03:44:24;12.02;;;10.77;;
12625;SDS011;6378;42.684;23.372;2023-07-08T03:46:50;11.38;;;10.38;;
12625;SDS011;6378;42.684;23.372;2023-07-08T03:49:16;11.63;;;10.52;;
12625;SDS011;6378;42.684;23.372;2023-07-08T03:51:46;11.43;;;10.32;;
12625;SDS011;6378;42.684;23.372;2023-07-08T03:54:13;10.73;;;9.68;;
12625;SDS011;6378;42.684;23.372;2023-07-08T03:56:39;11.13;;;10.00;;
12625;SDS011;6378;42.684;23.372;2023-07-08T03:59:04;11.13;;;10.00;;
12625;SDS011;6378;42.684;23.372;2023-07-08T04:01:30;10.73;;;9.60;;
12625;SDS011;6378;42.684;23.372;2023-07-08T04:03:56;10.25;;;9.15;;
12625;SDS011;6378;42.684;23.372;2023-07-08T04:06:23;11.23;;;10.20;;
12625;SDS011;6378;42.684;23.372;2023-07-08T04:08:49;13.60;;;10.27;;
12625;SDS011;6378;42.684;23.372;2023-07-08T04:11:16;10.55;;;9.45;;
12625;SDS011;6378;42.684;23.372;2023-07-08T04:13:43;10.55;;;9.45;;
12625;SDS011;6378;42.684;23.372;2023-07-08T04:16:12;11.50;;;9.15;;
12625;SDS011;6378;42.684;23.372;2023-07-08T04:18:45;9.55;;;8.65;;
12625;SDS011;6378;42.684;23.372;2023-07-08T04:21:10;8.93;;;8.02;;
12625;SDS011;6378;42.684;23.372;2023-07-08T04:23:36;9.75;;;8.60;;
12625;SDS011;6378;42.684;23.372;2023-07-08T04:26:08;11.27;;;9.10;;
12625;SDS011;6378;42.684;23.372;2023-07-08T04:28:33;16.95;;;9.40;;
12625;SDS011;6378;42.684;23.372;2023-07-08T04:30:59;11.85;;;9.88;;
12625;SDS011;6378;42.684;23.372;2023-07-08T04:33:24;10.02;;;9.00;;
12625;SDS011;6378;42.684;23.372;2023-07-08T04:35:49;12.25;;;9.43;;
12625;SDS011;6378;42.684;23.372;2023-07-08T04:38:22;9.95;;;9.05;;
12625;SDS011;6378;42.684;23.372;2023-07-08T04:40:50;11.88;;;9.00;;
12625;SDS011;6378;42.684;23.372;2023-07-08T04:43:17;12.27;;;8.75;;
12625;SDS011;6378;42.684;23.372;2023-07-08T04:45:44;9.90;;;8.90;;
12625;SDS011;6378;42.684;23.372;2023-07-08T04:48:15;9.68;;;8.75;;
12625;SDS011;6378;42.684;23.372;2023-07-08T04:50:45;8.93;;;8.10;;
12625;SDS011;6378;42.684;23.372;2023-07-08T04:53:12;9.35;;;8.45;;
12625;SDS011;6378;42.684;23.372;2023-07-08T04:55:38;9.73;;;8.70;;
12625;SDS011;6378;42.684;23.372;2023-07-08T04:58:07;9.48;;;8.63;;
12625;SDS011;6378;42.684;23.372;2023-07-08T05:00:32;9.73;;;8.82;;
12625;SDS011;6378;42.684;23.372;2023-07-08T05:02:57;10.05;;;8.75;;
12625;SDS011;6378;42.684;23.372;2023-07-08T05:05:23;10.70;;;9.18;;
12625;SDS011;6378;42.684;23.372;2023-07-08T05:07:48;12.50;;;9.77;;
12625;SDS011;6378;42.684;23.372;2023-07-08T05:10:17;10.77;;;8.88;;
12625;SDS011;6378;42.684;23.372;2023-07-08T05:12:44;11.48;;;9.77;;
12625;SDS011;6378;42.684;23.372;2023-07-08T05:15:10;10.27;;;9.20;;
12625;SDS011;6378;42.684;23.372;2023-07-08T05:17:36;11.27;;;10.05;;
12625;SDS011;6378;42.684;23.372;2023-07-08T05:20:03;11.02;;;9.25;;
12625;SDS011;6378;42.684;23.372;2023-07-08T05:22:29;10.02;;;9.05;;
12625;SDS011;6378;42.684;23.372;2023-07-08T05:24:54;10.38;;;8.90;;
12625;SDS011;6378;42.684;23.372;2023-07-08T05:27:23;9.30;;;8.43;;
12625;SDS011;6378;42.684;23.372;2023-07-08T05:29:49;10.23;;;8.90;;
12625;SDS011;6378;42.684;23.372;2023-07-08T05:32:16;11.73;;;9.77;;
12625;SDS011;6378;42.684;23.372;2023-07-08T05:34:42;9.43;;;8.52;;
12625;SDS011;6378;42.684;23.372;2023-07-08T05:37:08;10.02;;;9.02;;
12625;SDS011;6378;42.684;23.372;2023-07-08T05:39:33;11.15;;;9.45;;
12625;SDS011;6378;42.684;23.372;2023-07-08T05:41:59;15.43;;;8.95;;
12625;SDS011;6378;42.684;23.372;2023-07-08T05:44:25;9.95;;;8.95;;
12625;SDS011;6378;42.684;23.372;2023-07-08T05:46:50;10.70;;;9.18;;
12625;SDS011;6378;42.684;23.372;2023-07-08T05:49:16;11.73;;;9.70;;
12625;SDS011;6378;42.684;23.372;2023-07-08T05:51:43;9.50;;;8.50;;
12625;SDS011;6378;42.684;23.372;2023-07-08T05:54:09;9.55;;;8.55;;
12625;SDS011;6378;42.684;23.372;2023-07-08T05:56:34;10.18;;;9.02;;
12625;SDS011;6378;42.684;23.372;2023-07-08T05:59:00;10.25;;;9.25;;
12625;SDS011;6378;42.684;23.372;2023-07-08T06:01:25;11.32;;;8.88;;
12625;SDS011;6378;42.684;23.372;2023-07-08T06:03:50;13.63;;;10.73;;
12625;SDS011;6378;42.684;23.372;2023-07-08T06:06:16;15.93;;;12.93;;
12625;SDS011;6378;42.684;23.372;2023-07-08T06:08:41;25.48;;;21.63;;
12625;SDS011;6378;42.684;23.372;2023-07-08T06:11:06;10.45;;;9.45;;
12625;SDS011;6378;42.684;23.372;2023-07-08T06:13:32;12.07;;;10.07;;
12625;SDS011;6378;42.684;23.372;2023-07-08T06:15:57;10.73;;;9.65;;
12625;SDS011;6378;42.684;23.372;2023-07-08T06:18:23;11.20;;;9.80;;
12625;SDS011;6378;42.684;23.372;2023-07-08T06:20:52;10.48;;;9.57;;
12625;SDS011;6378;42.684;23.372;2023-07-08T06:23:18;11.57;;;10.43;;
12625;SDS011;6378;42.684;23.372;2023-07-08T06:25:44;11.32;;;10.23;;
12625;SDS011;6378;42.684;23.372;2023-07-08T06:28:09;12.10;;;10.90;;
12625;SDS011;6378;42.684;23.372;2023-07-08T06:30:34;11.30;;;10.27;;
12625;SDS011;6378;42.684;23.372;2023-07-08T06:33:00;12.80;;;10.43;;
12625;SDS011;6378;42.684;23.372;2023-07-08T06:35:25;11.38;;;10.15;;
12625;SDS011;6378;42.684;23.372;2023-07-08T06:37:51;9.85;;;8.93;;
12625;SDS011;6378;42.684;23.372;2023-07-08T06:40:16;11.63;;;9.55;;
12625;SDS011;6378;42.684;23.372;2023-07-08T06:42:44;11.25;;;10.00;;
12625;SDS011;6378;42.684;23.372;2023-07-08T06:45:09;12.30;;;10.93;;
12625;SDS011;6378;42.684;23.372;2023-07-08T06:47:35;10.82;;;9.32;;
12625;SDS011;6378;42.684;23.372;2023-07-08T06:50:00;10.10;;;9.07;;
12625;SDS011;6378;42.684;23.372;2023-07-08T06:52:26;9.93;;;8.98;;
12625;SDS011;6378;42.684;23.372;2023-07-08T06:54:51;10.10;;;9.05;;
12625;SDS011;6378;42.684;23.372;2023-07-08T06:57:16;10.63;;;8.48;;
12625;SDS011;6378;42.684;23.372;2023-07-08T06:59:42;11.52;;;8.98;;
12625;SDS011;6378;42.684;23.372;2023-07-08T07:02:08;12.00;;;8.60;;
12625;SDS011;6378;42.684;23.372;2023-07-08T07:04:34;9.77;;;8.35;;
12625;SDS011;6378;42.684;23.372;2023-07-08T07:07:00;9.63;;;8.65;;
12625;SDS011;6378;42.684;23.372;2023-07-08T07:09:26;15.23;;;11.02;;
12625;SDS011;6378;42.684;23.372;2023-07-08T07:11:51;9.75;;;8.75;;
12625;SDS011;6378;42.684;23.372;2023-07-08T07:14:17;9.93;;;8.93;;
12625;SDS011;6378;42.684;23.372;2023-07-08T07:16:42;11.10;;;8.70;;
12625;SDS011;6378;42.684;23.372;2023-07-08T07:19:08;9.60;;;8.60;;
12625;SDS011;6378;42.684;23.372;2023-07-08T07:21:33;10.65;;;8.90;;
12625;SDS011;6378;42.684;23.372;2023-07-08T07:23:59;10.93;;;9.32;;
12625;SDS011;6378;42.684;23.372;2023-07-08T07:26:24;10.15;;;9.23;;
12625;SDS011;6378;42.684;23.372;2023-07-08T07:28:49;15.55;;;10.10;;
12625;SDS011;6378;42.684;23.372;2023-07-08T07:31:15;15.38;;;12.20;;
12625;SDS011;6378;42.684;23.372;2023-07-08T07:33:40;12.68;;;10.40;;
12625;SDS011;6378;42.684;23.372;2023-07-08T07:36:05;12.05;;;9.23;;
12625;SDS011;6378;42.684;23.372;2023-07-08T07:38:32;10.27;;;9.15;;
12625;SDS011;6378;42.684;23.372;2023-07-08T07:40:58;13.30;;;9.40;;
12625;SDS011;6378;42.684;23.372;2023-07-08T07:43:25;11.73;;;9.23;;
12625;SDS011;6378;42.684;23.372;2023-07-08T07:45:51;10.80;;;9.32;;
12625;SDS011;6378;42.684;23.372;2023-07-08T07:48:17;11.18;;;9.77;;
12625;SDS011;6378;42.684;23.372;2023-07-08T07:50:47;9.32;;;8.15;;
12625;SDS011;6378;42.684;23.372;2023-07-08T07:53:13;11.18;;;10.07;;
12625;SDS011;6378;42.684;23.372;2023-07-08T07:55:38;11.30;;;9.15;;
12625;SDS011;6378;42.684;23.372;2023-07-08T07:58:05;9.80;;;8.90;;
12625;SDS011;6378;42.684;23.372;2023-07-08T08:00:32;10.18;;;8.65;;
12625;SDS011;6378;42.684;23.372;2023-07-08T08:02:58;10.18;;;8.43;;
12625;SDS011;6378;42.684;23.372;2023-07-08T08:05:23;9.45;;;8.52;;
12625;SDS011;6378;42.684;23.372;2023-07-08T08:07:49;9.32;;;8.52;;
12625;SDS011;6378;42.684;23.372;2023-07-08T08:10:14;9.00;;;8.10;;
12625;SDS011;6378;42.684;23.372;2023-07-08T08:12:40;9.80;;;8.98;;
12625;SDS011;6378;42.684;23.372;2023-07-08T08:15:05;10.50;;;9.38;;
12625;SDS011;6378;42.684;23.372;2023-07-08T08:17:31;10.27;;;9.27;;
12625;SDS011;6378;42.684;23.372;2023-07-08T08:19:57;10.98;;;9.88;;
12625;SDS011;6378;42.684;23.372;2023-07-08T08:22:22;10.10;;;9.20;;
12625;SDS011;6378;42.684;23.372;2023-07-08T08:24:47;9.52;;;8.38;;
12625;SDS011;6378;42.684;23.372;2023-07-08T08:27:13;10.27;;;8.98;;
12625;SDS011;6378;42.684;23.372;2023-07-08T08:29:38;10.55;;;8.85;;
12625;SDS011;6378;42.684;23.372;2023-07-08T08:32:04;9.95;;;8.98;;
12625;SDS011;6378;42.684;23.372;2023-07-08T08:34:29;9.05;;;8.25;;
12625;SDS011;6378;42.684;23.372;2023-07-08T08:36:56;12.32;;;9.07;;
12625;SDS011;6378;42.684;23.372;2023-07-08T08:39:22;9.07;;;8.18;;
12625;SDS011;6378;42.684;23.372;2023-07-08T08:41:47;9.45;;;8.65;;
12625;SDS011;6378;42.684;23.372;2023-07-08T08:44:21;10.60;;;8.85;;
12625;SDS011;6378;42.684;23.372;2023-07-08T08:46:55;9.07;;;8.27;;
12625;SDS011;6378;42.684;23.372;2023-07-08T08:49:32;10.48;;;8.50;;
12625;SDS011;6378;42.684;23.372;2023-07-08T08:52:05;11.80;;;10.60;;
12625;SDS011;6378;42.684;23.372;2023-07-08T08:54:31;10.82;;;9.45;;
12625;SDS011;6378;42.684;23.372;2023-07-08T08:59:52;10.43;;;8.93;;
12625;SDS011;6378;42.684;23.372;2023-07-08T09:04:47;10.57;;;9.68;;
12625;SDS011;6378;42.684;23.372;2023-07-08T09:07:14;10.98;;;9.75;;
12625;SDS011;6378;42.684;23.372;2023-07-08T09:12:29;10.07;;;9.07;;
12625;SDS011;6378;42.684;23.372;2023-07-08T09:14:57;10.15;;;8.95;;
12625;SDS011;6378;42.684;23.372;2023-07-08T09:17:24;10.63;;;9.48;;
12625;SDS011;6378;42.684;23.372;2023-07-08T09:22:36;10.32;;;9.23;;
12625;SDS011;6378;42.684;23.372;2023-07-08T09:25:20;10.45;;;9.40;;
12625;SDS011;6378;42.684;23.372;2023-07-08T09:27:49;9.18;;;8.27;;
12625;SDS011;6378;42.684;23.372;2023-07-08T09:30:16;9.70;;;8.40;;
12625;SDS011;6378;42.684;23.372;2023-07-08T09:32:45;9.00;;;7.93;;
12625;SDS011;6378;42.684;23.372;2023-07-08T09:35:17;8.88;;;8.07;;
12625;SDS011;6378;42.684;23.372;2023-07-08T09:38:06;9.00;;;8.07;;
12625;SDS011;6378;42.684;23.372;2023-07-08T09:40:33;9.73;;;8.73;;
12625;SDS011;6378;42.684;23.372;2023-07-08T09:43:03;12.07;;;9.93;;
12625;SDS011;6378;42.684;23.372;2023-07-08T09:45:45;9.18;;;8.38;;
12625;SDS011;6378;42.684;23.372;2023-07-08T09:48:20;9.30;;;8.40;;
12625;SDS011;6378;42.684;23.372;2023-07-08T09:50:49;8.25;;;7.45;;
12625;SDS011;6378;42.684;23.372;2023-07-08T09:53:16;9.80;;;8.13;;
12625;SDS011;6378;42.684;23.372;2023-07-08T09:55:42;9.20;;;7.63;;
12625;SDS011;6378;42.684;23.372;2023-07-08T09:58:19;10.60;;;8.00;;
12625;SDS011;6378;42.684;23.372;2023-07-08T10:00:54;9.25;;;8.20;;
12625;SDS011;6378;42.684;23.372;2023-07-08T10:03:23;9.15;;;8.25;;
12625;SDS011;6378;42.684;23.372;2023-07-08T10:05:52;7.97;;;7.28;;
12625;SDS011;6378;42.684;23.372;2023-07-08T10:08:23;7.82;;;7.13;;
12625;SDS011;6378;42.684;23.372;2023-07-08T10:10:55;8.65;;;7.75;;
12625;SDS011;6378;42.684;23.372;2023-07-08T10:13:41;8.45;;;7.60;;
12625;SDS011;6378;42.684;23.372;2023-07-08T10:16:13;8.68;;;7.78;;
12625;SDS011;6378;42.684;23.372;2023-07-08T10:18:42;8.98;;;7.25;;
12625;SDS011;6378;42.684;23.372;2023-07-08T10:24:36;7.70;;;7.00;;
12625;SDS011;6378;42.684;23.372;2023-07-08T10:29:54;8.15;;;7.35;;
12625;SDS011;6378;42.684;23.372;2023-07-08T10:32:27;9.50;;;7.25;;
12625;SDS011;6378;42.684;23.372;2023-07-08T10:35:18;8.50;;;7.50;;
12625;SDS011;6378;42.684;23.372;2023-07-08T10:40:19;7.95;;;7.25;;
12625;SDS011;6378;42.684;23.372;2023-07-08T10:48:45;7.13;;;6.22;;
12625;SDS011;6378;42.684;23.372;2023-07-08T10:51:26;7.82;;;6.93;;
12625;SDS011;6378;42.684;23.372;2023-07-08T10:59:47;8.13;;;7.32;;
12625;SDS011;6378;42.684;23.372;2023-07-08T11:08:30;6.93;;;6.32;;
12625;SDS011;6378;42.684;23.372;2023-07-08T11:11:12;7.68;;;6.97;;
12625;SDS011;6378;42.684;23.372;2023-07-08T11:13:55;6.93;;;6.32;;
12625;SDS011;6378;42.684;23.372;2023-07-08T11:16:32;7.00;;;6.30;;
12625;SDS011;6378;42.684;23.372;2023-07-08T11:21:37;7.80;;;7.00;;
12625;SDS011;6378;42.684;23.372;2023-07-08T11:27:20;7.20;;;6.55;;
12625;SDS011;6378;42.684;23.372;2023-07-08T11:29:53;6.80;;;6.20;;
12625;SDS011;6378;42.684;23.372;2023-07-08T11:32:23;6.78;;;6.18;;
12625;SDS011;6378;42.684;23.372;2023-07-08T11:34:51;10.48;;;7.45;;
12625;SDS011;6378;42.684;23.372;2023-07-08T11:37:19;11.02;;;8.88;;
12625;SDS011;6378;42.684;23.372;2023-07-08T11:39:47;10.63;;;6.95;;
12625;SDS011;6378;42.684;23.372;2023-07-08T11:42:37;8.43;;;7.55;;
12625;SDS011;6378;42.684;23.372;2023-07-08T11:45:30;7.63;;;6.95;;
12625;SDS011;6378;42.684;23.372;2023-07-08T11:48:02;8.10;;;7.40;;
12625;SDS011;6378;42.684;23.372;2023-07-08T11:50:41;6.93;;;6.30;;
12625;SDS011;6378;42.684;23.372;2023-07-08T11:53:09;8.45;;;6.18;;
12625;SDS011;6378;42.684;23.372;2023-07-08T11:55:44;7.07;;;6.13;;
12625;SDS011;6378;42.684;23.372;2023-07-08T11:58:19;6.97;;;6.28;;
12625;SDS011;6378;42.684;23.372;2023-07-08T12:03:38;7.95;;;6.10;;
12625;SDS011;6378;42.684;23.372;2023-07-08T12:08:52;6.05;;;5.45;;
12625;SDS011;6378;42.684;23.372;2023-07-08T12:11:19;7.20;;;6.00;;
12625;SDS011;6378;42.684;23.372;2023-07-08T12:13:51;6.80;;;5.60;;
12625;SDS011;6378;42.684;23.372;2023-07-08T12:16:18;5.60;;;5.10;;
12625;SDS011;6378;42.684;23.372;2023-07-08T12:18:43;6.32;;;5.20;;
12625;SDS011;6378;42.684;23.372;2023-07-08T12:21:11;6.40;;;5.80;;
12625;SDS011;6378;42.684;23.372;2023-07-08T12:23:43;6.50;;;5.43;;
12625;SDS011;6378;42.684;23.372;2023-07-08T12:26:12;9.25;;;6.20;;
12625;SDS011;6378;42.684;23.372;2023-07-08T12:28:40;8.55;;;6.28;;
12625;SDS011;6378;42.684;23.372;2023-07-08T12:31:15;7.07;;;6.00;;
12625;SDS011;6378;42.684;23.372;2023-07-08T12:33:45;6.22;;;5.63;;
12625;SDS011;6378;42.684;23.372;2023-07-08T12:36:13;8.27;;;5.10;;
12625;SDS011;6378;42.684;23.372;2023-07-08T12:38:50;5.75;;;5.13;;
12625;SDS011;6378;42.684;23.372;2023-07-08T12:41:18;7.43;;;6.68;;
12625;SDS011;6378;42.684;23.372;2023-07-08T12:43:46;9.50;;;8.50;;
12625;SDS011;6378;42.684;23.372;2023-07-08T12:46:13;7.32;;;5.55;;
12625;SDS011;6378;42.684;23.372;2023-07-08T12:48:39;6.05;;;5.45;;
12625;SDS011;6378;42.684;23.372;2023-07-08T12:51:06;5.43;;;4.95;;
12625;SDS011;6378;42.684;23.372;2023-07-08T12:53:36;6.10;;;5.50;;
12625;SDS011;6378;42.684;23.372;2023-07-08T12:56:02;5.50;;;5.00;;
12625;SDS011;6378;42.684;23.372;2023-07-08T12:58:30;6.22;;;5.03;;
12625;SDS011;6378;42.684;23.372;2023-07-08T13:00:58;8.05;;;5.22;;
12625;SDS011;6378;42.684;23.372;2023-07-08T13:03:27;8.40;;;5.35;;
12625;SDS011;6378;42.684;23.372;2023-07-08T13:05:55;6.07;;;5.13;;
12625;SDS011;6378;42.684;23.372;2023-07-08T13:08:24;5.53;;;4.93;;
12625;SDS011;6378;42.684;23.372;2023-07-08T13:10:54;12.00;;;5.80;;
12625;SDS011;6378;42.684;23.372;2023-07-08T13:13:23;6.65;;;5.75;;
12625;SDS011;6378;42.684;23.372;2023-07-08T13:15:51;6.55;;;5.25;;
12625;SDS011;6378;42.684;23.372;2023-07-08T13:18:20;5.60;;;5.10;;
12625;SDS011;6378;42.684;23.372;2023-07-08T13:20:52;5.25;;;4.75;;
12625;SDS011;6378;42.684;23.372;2023-07-08T13:23:18;5.10;;;4.45;;
12625;SDS011;6378;42.684;23.372;2023-07-08T13:25:47;5.47;;;4.60;;
12625;SDS011;6378;42.684;23.372;2023-07-08T13:28:19;4.82;;;4.32;;
12625;SDS011;6378;42.684;23.372;2023-07-08T13:30:52;5.97;;;4.78;;
12625;SDS011;6378;42.684;23.372;2023-07-08T13:33:22;9.65;;;5.53;;
12625;SDS011;6378;42.684;23.372;2023-07-08T13:35:48;6.15;;;5.13;;
12625;SDS011;6378;42.684;23.372;2023-07-08T13:38:17;8.75;;;7.05;;
12625;SDS011;6378;42.684;23.372;2023-07-08T13:40:46;6.35;;;4.70;;
12625;SDS011;6378;42.684;23.372;2023-07-08T13:43:14;5.80;;;5.10;;
12625;SDS011;6378;42.684;23.372;2023-07-08T13:45:43;5.60;;;4.72;;
12625;SDS011;6378;42.684;23.372;2023-07-08T13:50:52;5.18;;;4.53;;
12625;SDS011;6378;42.684;23.372;2023-07-08T13:53:23;5.50;;;4.95;;
12625;SDS011;6378;42.684;23.372;2023-07-08T13:55:59;4.90;;;4.45;;
12625;SDS011;6378;42.684;23.372;2023-07-08T13:58:27;5.53;;;4.68;;
12625;SDS011;6378;42.684;23.372;2023-07-08T14:00:54;5.63;;;5.07;;
12625;SDS011;6378;42.684;23.372;2023-07-08T14:03:21;5.65;;;4.75;;
12625;SDS011;6378;42.684;23.372;2023-07-08T14:05:46;5.55;;;4.68;;
12625;SDS011;6378;42.684;23.372;2023-07-08T14:08:13;4.90;;;4.47;;
12625;SDS011;6378;42.684;23.372;2023-07-08T14:10:40;7.20;;;4.75;;
12625;SDS011;6378;42.684;23.372;2023-07-08T14:13:06;5.82;;;4.75;;
12625;SDS011;6378;42.684;23.372;2023-07-08T14:15:31;5.13;;;4.30;;
12625;SDS011;6378;42.684;23.372;2023-07-08T14:17:57;5.90;;;4.97;;
12625;SDS011;6378;42.684;23.372;2023-07-08T14:20:25;5.68;;;4.68;;
12625;SDS011;6378;42.684;23.372;2023-07-08T14:22:52;5.10;;;4.60;;
12625;SDS011;6378;42.684;23.372;2023-07-08T14:25:18;6.35;;;4.75;;
12625;SDS011;6378;42.684;23.372;2023-07-08T14:27:46;5.18;;;4.40;;
12625;SDS011;6378;42.684;23.372;2023-07-08T14:30:11;6.78;;;4.80;;
12625;SDS011;6378;42.684;23.372;2023-07-08T14:32:37;5.03;;;4.20;;
12625;SDS011;6378;42.684;23.372;2023-07-08T14:35:12;4.40;;;3.90;;
12625;SDS011;6378;42.684;23.372;2023-07-08T14:37:41;4.85;;;4.25;;
12625;SDS011;6378;42.684;23.372;2023-07-08T14:42:51;7.85;;;4.53;;
12625;SDS011;6378;42.684;23.372;2023-07-08T14:45:25;7.20;;;5.75;;
12625;SDS011;6378;42.684;23.372;2023-07-08T14:47:51;5.13;;;4.30;;
12625;SDS011;6378;42.684;23.372;2023-07-08T14:50:16;6.80;;;4.45;;
12625;SDS011;6378;42.684;23.372;2023-07-08T14:52:42;5.22;;;3.92;;
12625;SDS011;6378;42.684;23.372;2023-07-08T14:55:08;5.55;;;4.45;;
12625;SDS011;6378;42.684;23.372;2023-07-08T14:57:39;4.90;;;4.40;;
12625;SDS011;6378;42.684;23.372;2023-07-08T15:00:10;5.80;;;4.85;;
12625;SDS011;6378;42.684;23.372;2023-07-08T15:02:40;7.75;;;4.47;;
12625;SDS011;6378;42.684;23.372;2023-07-08T15:05:28;4.85;;;4.28;;
12625;SDS011;6378;42.684;23.372;2023-07-08T15:07:54;4.72;;;4.32;;
12625;SDS011;6378;42.684;23.372;2023-07-08T15:10:25;5.25;;;4.50;;
12625;SDS011;6378;42.684;23.372;2023-07-08T15:12:53;5.20;;;4.70;;
12625;SDS011;6378;42.684;23.372;2023-07-08T15:15:23;6.20;;;4.60;;
12625;SDS011;6378;42.684;23.372;2023-07-08T15:17:53;4.93;;;4.35;;
12625;SDS011;6378;42.684;23.372;2023-07-08T15:20:18;5.57;;;4.75;;
12625;SDS011;6378;42.684;23.372;2023-07-08T15:22:45;5.60;;;4.57;;
12625;SDS011;6378;42.684;23.372;2023-07-08T15:25:12;6.05;;;4.75;;
12625;SDS011;6378;42.684;23.372;2023-07-08T15:27:39;5.40;;;4.60;;
12625;SDS011;6378;42.684;23.372;2023-07-08T15:30:21;5.35;;;4.82;;
12625;SDS011;6378;42.684;23.372;2023-07-08T15:32:47;5.63;;;4.82;;
12625;SDS011;6378;42.684;23.372;2023-07-08T15:35:14;5.65;;;4.82;;
12625;SDS011;6378;42.684;23.372;2023-07-08T15:37:41;5.28;;;4.70;;